createdAt,value
2017-02-14T00:00:46.735Z,330.01
2017-02-14T00:01:46.727Z,329.1
2017-02-14T00:02:46.736Z,327.73
2017-02-14T00:03:46.739Z,327.49
2017-02-14T00:04:46.731Z,328.01
2017-02-14T00:05:46.749Z,328.03
2017-02-14T00:06:46.741Z,328.87
2017-02-14T00:07:46.737Z,330.03
2017-02-14T00:08:46.768Z,330.68
2017-02-14T00:09:46.733Z,331.39
2017-02-14T00:10:46.746Z,332.09
2017-02-14T00:11:46.728Z,331.62
2017-02-14T00:12:46.732Z,330.53
2017-02-14T00:13:46.744Z,330.94
2017-02-14T00:14:46.803Z,330.98
2017-02-14T00:15:46.739Z,330.95
2017-02-14T00:16:46.774Z,330.94
2017-02-14T00:17:46.766Z,331.13
2017-02-14T00:18:46.743Z,330.45
2017-02-14T00:19:46.767Z,329.38
2017-02-14T00:20:46.734Z,328.85
2017-02-14T00:21:46.738Z,328.92
2017-02-14T00:22:46.736Z,327.11
2017-02-14T00:23:46.740Z,325.93
2017-02-14T00:24:46.751Z,324.83
2017-02-14T00:25:46.742Z,324.41
2017-02-14T00:26:46.756Z,322.58
2017-02-14T00:27:46.746Z,321.35
2017-02-14T00:28:46.738Z,320.03
2017-02-14T00:29:46.745Z,318.85
2017-02-14T00:30:46.743Z,317.7
2017-02-14T00:31:46.745Z,315.95
2017-02-14T00:32:46.746Z,315.93
2017-02-14T00:33:46.749Z,314.14
2017-02-14T00:34:46.762Z,313.48
2017-02-14T00:35:46.743Z,313.69
2017-02-14T00:36:46.760Z,313.66
2017-02-14T00:37:46.761Z,312.23
2017-02-14T00:38:46.749Z,312.21
2017-02-14T00:39:46.753Z,310.16
2017-02-14T00:40:46.758Z,310.37
2017-02-14T00:41:46.760Z,310.61
2017-02-14T00:42:46.753Z,309.47
2017-02-14T00:43:46.766Z,308.05
2017-02-14T00:44:46.759Z,307.69
2017-02-14T00:45:46.759Z,307.52
2017-02-14T00:46:46.749Z,306.96
2017-02-14T00:47:46.757Z,308.15
2017-02-14T00:48:46.758Z,308.98
2017-02-14T00:49:46.750Z,309.43
2017-02-14T00:50:46.762Z,310.81
2017-02-14T00:51:46.771Z,311.49
2017-02-14T00:52:46.758Z,311.55
2017-02-14T00:53:46.772Z,311.04
2017-02-14T00:54:46.762Z,310.99
2017-02-14T00:55:46.762Z,311.91
2017-02-14T00:56:46.768Z,311.68
2017-02-14T00:57:46.762Z,311.02
2017-02-14T00:58:46.781Z,311.74
2017-02-14T00:59:46.766Z,312.05
2017-02-14T01:00:46.766Z,313.18
2017-02-14T01:01:46.765Z,313.62
2017-02-14T01:02:46.764Z,313.36
2017-02-14T01:03:46.771Z,313.94
2017-02-14T01:04:46.763Z,314.65
2017-02-14T01:05:46.766Z,313.46
2017-02-14T01:06:46.774Z,313.95
2017-02-14T01:07:46.767Z,312.83
2017-02-14T01:08:46.769Z,312.63
2017-02-14T01:09:46.778Z,311.92
2017-02-14T01:10:46.777Z,311.45
2017-02-14T01:11:46.785Z,311.2
2017-02-14T01:12:46.775Z,311.7
2017-02-14T01:13:46.776Z,312.63
2017-02-14T01:14:46.772Z,312.47
2017-02-14T01:15:46.779Z,312.95
2017-02-14T01:16:46.800Z,312.59
2017-02-14T01:17:46.784Z,312.87
2017-02-14T01:18:46.784Z,311.21
2017-02-14T01:19:46.781Z,311.01
2017-02-14T01:20:46.803Z,310.52
2017-02-14T01:21:46.777Z,310.25
2017-02-14T01:22:46.781Z,309.54
2017-02-14T01:23:46.777Z,308.32
2017-02-14T01:24:46.771Z,309.05
2017-02-14T01:25:46.776Z,310.36
2017-02-14T01:26:46.779Z,312
2017-02-14T01:27:46.782Z,313.59
2017-02-14T01:28:46.782Z,315.84
2017-02-14T01:29:46.779Z,316.75
2017-02-14T01:30:46.797Z,318.1
2017-02-14T01:31:46.793Z,319.51
2017-02-14T01:32:46.792Z,321.05
2017-02-14T01:33:46.782Z,321.77
2017-02-14T01:34:46.781Z,322.24
2017-02-14T01:35:46.810Z,321.77
2017-02-14T01:36:46.787Z,323.19
2017-02-14T01:37:46.796Z,322.93
2017-02-14T01:38:46.795Z,322.4
2017-02-14T01:39:46.808Z,322.84
2017-02-14T01:40:46.792Z,322.89
2017-02-14T01:41:46.790Z,321.28
2017-02-14T01:42:46.793Z,321.51
2017-02-14T01:43:46.802Z,319.44
2017-02-14T01:44:46.794Z,318.46
2017-02-14T01:45:46.798Z,317.79
2017-02-14T01:46:46.803Z,316.8
2017-02-14T01:47:46.806Z,315.26
2017-02-14T01:48:46.796Z,315.01
2017-02-14T01:49:46.798Z,314.78
2017-02-14T01:50:46.842Z,313.6
2017-02-14T01:51:46.793Z,312.16
2017-02-14T01:52:46.802Z,311.76
2017-02-14T01:53:46.812Z,311.67
2017-02-14T01:54:46.798Z,311.66
2017-02-14T01:55:46.797Z,311.59
2017-02-14T01:56:46.824Z,312.26
2017-02-14T01:57:46.812Z,312.88
2017-02-14T01:58:46.816Z,314.09
2017-02-14T01:59:46.814Z,314.66
2017-02-14T02:00:46.819Z,315.68
2017-02-14T02:01:46.797Z,315.34
2017-02-14T02:02:46.819Z,315.08
2017-02-14T02:03:46.811Z,312.62
2017-02-14T02:04:46.798Z,311.39
2017-02-14T02:05:46.813Z,309.09
2017-02-14T02:06:46.806Z,307.32
2017-02-14T02:07:46.819Z,304.84
2017-02-14T02:08:46.803Z,303.71
2017-02-14T02:09:46.811Z,301.83
2017-02-14T02:10:46.803Z,300.35
2017-02-14T02:11:46.807Z,298.34
2017-02-14T02:12:46.824Z,297.36
2017-02-14T02:13:46.803Z,296.24
2017-02-14T02:14:46.812Z,295.04
2017-02-14T02:15:46.809Z,293.86
2017-02-14T02:16:46.810Z,291.73
2017-02-14T02:17:46.814Z,290.61
2017-02-14T02:18:46.827Z,288.71
2017-02-14T02:19:46.806Z,287.32
2017-02-14T02:20:46.814Z,285.43
2017-02-14T02:21:46.819Z,282.85
2017-02-14T02:22:46.809Z,280.72
2017-02-14T02:23:46.814Z,278.11
2017-02-14T02:24:46.818Z,275.78
2017-02-14T02:25:46.818Z,274.17
2017-02-14T02:26:46.810Z,273.46
2017-02-14T02:27:46.813Z,271.09
2017-02-14T02:28:46.824Z,270.95
2017-02-14T02:29:46.817Z,269.96
2017-02-14T02:30:46.823Z,268.8
2017-02-14T02:31:46.819Z,268.59
2017-02-14T02:32:46.818Z,268.49
2017-02-14T02:33:46.822Z,268.12
2017-02-14T02:34:46.820Z,267.34
2017-02-14T02:35:46.824Z,266.8
2017-02-14T02:36:46.817Z,266.77
2017-02-14T02:37:46.822Z,266.55
2017-02-14T02:38:46.825Z,266.07
2017-02-14T02:39:46.819Z,266.29
2017-02-14T02:40:46.833Z,265.07
2017-02-14T02:41:46.829Z,264.59
2017-02-14T02:42:46.824Z,264.99
2017-02-14T02:43:46.833Z,263.13
2017-02-14T02:44:46.838Z,262.89
2017-02-14T02:45:46.835Z,262.41
2017-02-14T02:46:46.828Z,261.65
2017-02-14T02:47:46.839Z,262.76
2017-02-14T02:48:46.826Z,262.52
2017-02-14T02:49:46.839Z,263.67
2017-02-14T02:50:46.831Z,263.64
2017-02-14T02:51:46.843Z,267.11
2017-02-14T02:52:46.832Z,270.36
2017-02-14T02:53:46.836Z,275.04
2017-02-14T02:54:46.831Z,278.69
2017-02-14T02:55:46.840Z,283.16
2017-02-14T02:56:46.838Z,287.97
2017-02-14T02:57:46.844Z,291.19
2017-02-14T02:58:46.850Z,295.14
2017-02-14T02:59:46.855Z,297.91
2017-02-14T03:00:46.847Z,299.74
2017-02-14T03:01:46.833Z,302.23
2017-02-14T03:02:46.833Z,304.79
2017-02-14T03:03:46.836Z,308.45
2017-02-14T03:04:46.839Z,310.49
2017-02-14T03:05:46.851Z,308.8
2017-02-14T03:06:46.843Z,314.65
2017-02-14T03:07:46.832Z,315.53
2017-02-14T03:08:46.851Z,316.17
2017-02-14T03:09:46.847Z,317.56
2017-02-14T03:10:46.851Z,319.66
2017-02-14T03:11:46.854Z,320.36
2017-02-14T03:12:46.846Z,321.2
2017-02-14T03:13:46.846Z,323.22
2017-02-14T03:14:46.844Z,326.64
2017-02-14T03:15:46.856Z,329.62
2017-02-14T03:16:46.851Z,331.89
2017-02-14T03:17:46.846Z,333.76
2017-02-14T03:18:46.845Z,337.83
2017-02-14T03:19:46.846Z,341.62
2017-02-14T03:20:46.851Z,345.46
2017-02-14T03:21:46.850Z,348.27
2017-02-14T03:22:46.851Z,353.02
2017-02-14T03:23:46.853Z,355.87
2017-02-14T03:24:46.847Z,357.67
2017-02-14T03:25:46.861Z,359.44
2017-02-14T03:26:46.852Z,361.43
2017-02-14T03:27:46.861Z,363.19
2017-02-14T03:28:46.855Z,364.26
2017-02-14T03:29:46.849Z,365.42
2017-02-14T03:30:46.856Z,365.97
2017-02-14T03:31:46.859Z,366.63
2017-02-14T03:32:46.854Z,368.37
2017-02-14T03:33:46.861Z,369.48
2017-02-14T03:34:46.858Z,369.98
2017-02-14T03:35:46.865Z,370.24
2017-02-14T03:36:46.856Z,369.54
2017-02-14T03:37:46.861Z,369.16
2017-02-14T03:38:46.864Z,367.37
2017-02-14T03:39:46.859Z,365.77
2017-02-14T03:40:46.865Z,365.43
2017-02-14T03:41:46.897Z,365.66
2017-02-14T03:42:46.870Z,364.31
2017-02-14T03:43:46.860Z,363.22
2017-02-14T03:44:46.876Z,361.88
2017-02-14T03:45:46.869Z,360.02
2017-02-14T03:46:46.869Z,359.23
2017-02-14T03:47:46.859Z,358.46
2017-02-14T03:48:46.878Z,358.47
2017-02-14T03:49:46.869Z,358.42
2017-02-14T03:50:46.860Z,358.78
2017-02-14T03:51:46.887Z,360.07
2017-02-14T03:52:46.885Z,359.16
2017-02-14T03:53:46.872Z,359.55
2017-02-14T03:54:46.864Z,358.66
2017-02-14T03:55:46.874Z,358.63
2017-02-14T03:56:46.878Z,357.26
2017-02-14T03:57:46.873Z,356.54
2017-02-14T03:58:46.876Z,356.91
2017-02-14T03:59:46.874Z,357.44
2017-02-14T04:00:46.876Z,356.98
2017-02-14T04:01:46.874Z,357.22
2017-02-14T04:02:46.879Z,357.44
2017-02-14T04:03:46.878Z,357.25
2017-02-14T04:04:46.874Z,357.7
2017-02-14T04:05:46.876Z,357.5
2017-02-14T04:06:46.876Z,357.83
2017-02-14T04:07:46.877Z,358
2017-02-14T04:08:46.876Z,357.3
2017-02-14T04:09:46.883Z,358.29
2017-02-14T04:10:46.882Z,358.11
2017-02-14T04:11:46.882Z,357.27
2017-02-14T04:12:46.883Z,357.1
2017-02-14T04:13:46.885Z,356.64
2017-02-14T04:14:46.894Z,355.57
2017-02-14T04:15:46.890Z,353.33
2017-02-14T04:16:46.883Z,351.8
2017-02-14T04:17:46.879Z,350.25
2017-02-14T04:18:46.886Z,348.89
2017-02-14T04:19:46.891Z,347.33
2017-02-14T04:20:46.882Z,346.24
2017-02-14T04:21:46.890Z,345.35
2017-02-14T04:22:46.885Z,345.58
2017-02-14T04:23:46.890Z,344.76
2017-02-14T04:24:46.891Z,344.3
2017-02-14T04:25:46.889Z,342.46
2017-02-14T04:26:46.891Z,342.24
2017-02-14T04:27:46.892Z,343.14
2017-02-14T04:28:46.895Z,342.9
2017-02-14T04:29:46.898Z,343.62
2017-02-14T04:30:46.895Z,344.07
2017-02-14T04:31:46.897Z,344.1
2017-02-14T04:32:46.889Z,344.11
2017-02-14T04:33:46.892Z,343.17
2017-02-14T04:34:46.898Z,342.29
2017-02-14T04:35:46.901Z,342.01
2017-02-14T04:36:46.892Z,341.81
2017-02-14T04:37:46.898Z,342.07
2017-02-14T04:38:46.896Z,340.94
2017-02-14T04:39:46.898Z,340.71
2017-02-14T04:40:46.909Z,340.28
2017-02-14T04:41:46.902Z,339.85
2017-02-14T04:42:46.908Z,339.39
2017-02-14T04:43:46.907Z,338.7
2017-02-14T04:44:46.903Z,338.48
2017-02-14T04:45:46.914Z,339.29
2017-02-14T04:46:46.900Z,338.24
2017-02-14T04:47:46.909Z,338.41
2017-02-14T04:48:46.903Z,337.32
2017-02-14T04:49:46.902Z,336.22
2017-02-14T04:50:46.900Z,334.34
2017-02-14T04:51:46.917Z,333.71
2017-02-14T04:52:46.908Z,333.42
2017-02-14T04:53:46.911Z,333.62
2017-02-14T04:54:46.911Z,332.91
2017-02-14T04:55:46.912Z,331.95
2017-02-14T04:56:46.917Z,331.17
2017-02-14T04:57:46.906Z,330.05
2017-02-14T04:58:46.917Z,328.64
2017-02-14T04:59:46.908Z,326.98
2017-02-14T05:00:46.904Z,325.75
2017-02-14T05:01:46.909Z,325.08
2017-02-14T05:02:46.991Z,324.89
2017-02-14T05:03:46.921Z,323.56
2017-02-14T05:04:46.918Z,323.38
2017-02-14T05:05:46.917Z,322.32
2017-02-14T05:06:46.918Z,321.65
2017-02-14T05:07:46.918Z,320.76
2017-02-14T05:08:46.918Z,319.17
2017-02-14T05:09:46.909Z,318.29
2017-02-14T05:10:46.932Z,318.12
2017-02-14T05:11:46.921Z,316.03
2017-02-14T05:12:46.921Z,313.98
2017-02-14T05:13:46.922Z,312.82
2017-02-14T05:14:46.928Z,311.43
2017-02-14T05:15:46.942Z,310.05
2017-02-14T05:16:46.922Z,308.86
2017-02-14T05:17:46.925Z,307.38
2017-02-14T05:18:46.941Z,305.77
2017-02-14T05:19:46.924Z,304.17
2017-02-14T05:20:46.927Z,302.95
2017-02-14T05:21:46.928Z,303.25
2017-02-14T05:22:46.934Z,303.48
2017-02-14T05:23:46.932Z,304.12
2017-02-14T05:24:46.918Z,304.38
2017-02-14T05:25:46.927Z,304.34
2017-02-14T05:26:46.937Z,304.4
2017-02-14T05:27:46.927Z,304.2
2017-02-14T05:28:46.927Z,304.17
2017-02-14T05:29:46.936Z,303.73
2017-02-14T05:30:46.939Z,302.66
2017-02-14T05:31:46.934Z,301.45
2017-02-14T05:32:46.939Z,299.88
2017-02-14T05:33:46.929Z,300.32
2017-02-14T05:34:46.935Z,301
2017-02-14T05:35:46.937Z,300.96
2017-02-14T05:36:46.936Z,300.77
2017-02-14T05:37:46.929Z,301.89
2017-02-14T05:38:46.937Z,302.88
2017-02-14T05:39:46.939Z,303.58
2017-02-14T05:40:46.938Z,305.4
2017-02-14T05:41:46.944Z,305.15
2017-02-14T05:42:46.959Z,304.05
2017-02-14T05:43:46.958Z,303.61
2017-02-14T05:44:46.948Z,302.21
2017-02-14T05:45:46.956Z,301.32
2017-02-14T05:46:46.943Z,301.35
2017-02-14T05:47:46.949Z,299.28
2017-02-14T05:48:46.953Z,299.24
2017-02-14T05:49:46.944Z,295.14
2017-02-14T05:50:46.947Z,296.79
2017-02-14T05:51:46.942Z,295.44
2017-02-14T05:52:46.939Z,294.34
2017-02-14T05:53:46.943Z,294.31
2017-02-14T05:54:46.943Z,294.13
2017-02-14T05:55:46.952Z,292.25
2017-02-14T05:56:46.946Z,292.26
2017-02-14T05:57:46.950Z,290.8
2017-02-14T05:58:46.959Z,289.85
2017-02-14T05:59:46.953Z,289.46
2017-02-14T06:00:46.953Z,288.52
2017-02-14T06:01:46.973Z,287.55
2017-02-14T06:02:46.956Z,287.37
2017-02-14T06:03:46.952Z,286.68
2017-02-14T06:04:46.978Z,285.79
2017-02-14T06:05:46.946Z,283.65
2017-02-14T06:06:46.946Z,283.66
2017-02-14T06:07:46.955Z,283.08
2017-02-14T06:08:46.966Z,282.1
2017-02-14T06:09:46.956Z,280.66
2017-02-14T06:10:46.956Z,279.83
2017-02-14T06:11:46.954Z,278.9
2017-02-14T06:12:46.957Z,277.11
2017-02-14T06:13:46.964Z,275.52
2017-02-14T06:14:46.963Z,275.38
2017-02-14T06:15:46.973Z,274.95
2017-02-14T06:16:46.965Z,274.01
2017-02-14T06:17:46.960Z,273.31
2017-02-14T06:18:46.962Z,272.63
2017-02-14T06:19:46.963Z,272.67
2017-02-14T06:20:46.957Z,272.44
2017-02-14T06:21:46.985Z,271.45
2017-02-14T06:22:46.971Z,270.96
2017-02-14T06:23:46.968Z,271.7
2017-02-14T06:24:46.959Z,270.02
2017-02-14T06:25:46.955Z,270.82
2017-02-14T06:26:46.978Z,270.35
2017-02-14T06:27:46.982Z,270.3
2017-02-14T06:28:46.970Z,268.75
2017-02-14T06:29:46.971Z,268.01
2017-02-14T06:30:46.967Z,267.82
2017-02-14T06:31:46.979Z,266.89
2017-02-14T06:32:46.969Z,266.41
2017-02-14T06:33:46.964Z,266.44
2017-02-14T06:34:46.992Z,265
2017-02-14T06:35:46.970Z,265.54
2017-02-14T06:36:46.981Z,265.5
2017-02-14T06:37:49.446Z,265.32
2017-02-14T06:38:49.005Z,264.57
2017-02-14T06:39:48.958Z,265.03
2017-02-14T06:40:50.196Z,265.39
2017-02-14T06:41:49.198Z,265.18
2017-02-14T06:42:49.211Z,266.35
2017-02-14T06:43:46.997Z,266.49
2017-02-14T06:44:49.588Z,266.27
2017-02-14T06:45:46.981Z,267.65
2017-02-14T06:46:46.977Z,269.03
2017-02-14T06:47:46.986Z,270.49
2017-02-14T06:48:46.979Z,270.4
2017-02-14T06:49:46.978Z,271.49
2017-02-14T06:50:46.979Z,271.06
2017-02-14T06:51:46.981Z,272.26
2017-02-14T06:52:46.983Z,273.14
2017-02-14T06:53:46.983Z,274.09
2017-02-14T06:54:46.985Z,274.32
2017-02-14T06:55:46.992Z,275.67
2017-02-14T06:56:46.983Z,277.63
2017-02-14T06:57:47.012Z,278.11
2017-02-14T06:58:47.004Z,278.59
2017-02-14T06:59:46.981Z,279.61
2017-02-14T07:00:46.979Z,280.76
2017-02-14T07:01:46.988Z,281.56
2017-02-14T07:02:46.989Z,281.98
2017-02-14T07:03:46.990Z,281.73
2017-02-14T07:04:46.998Z,282.68
2017-02-14T07:05:46.990Z,282.73
2017-02-14T07:06:46.993Z,282.81
2017-02-14T07:07:46.989Z,283.96
2017-02-14T07:08:46.988Z,285.11
2017-02-14T07:09:46.990Z,285.08
2017-02-14T07:10:46.989Z,286.39
2017-02-14T07:11:46.990Z,286.9
2017-02-14T07:12:46.985Z,288.06
2017-02-14T07:13:46.995Z,289.23
2017-02-14T07:14:46.988Z,290.1
2017-02-14T07:15:46.988Z,294.03
2017-02-14T07:16:46.999Z,295.91
2017-02-14T07:17:46.992Z,297.97
2017-02-14T07:18:46.995Z,298.86
2017-02-14T07:19:46.993Z,301.66
2017-02-14T07:20:46.999Z,303.94
2017-02-14T07:21:47.007Z,305.3
2017-02-14T07:22:47.001Z,307.9
2017-02-14T07:23:47.002Z,309.71
2017-02-14T07:24:47.016Z,312.5
2017-02-14T07:25:46.998Z,314.29
2017-02-14T07:26:47.004Z,315.61
2017-02-14T07:27:47.005Z,317.47
2017-02-14T07:28:47.010Z,319.3
2017-02-14T07:29:47.003Z,321.8
2017-02-14T07:30:47.013Z,323.62
2017-02-14T07:31:47.004Z,326.18
2017-02-14T07:32:47.014Z,327.71
2017-02-14T07:33:47.004Z,330.01
2017-02-14T07:34:47.004Z,331.6
2017-02-14T07:35:47.016Z,334.69
2017-02-14T07:36:47.012Z,336.9
2017-02-14T07:37:47.005Z,339.14
2017-02-14T07:38:47.014Z,341.87
2017-02-14T07:39:47.011Z,345.76
2017-02-14T07:40:47.014Z,350.27
2017-02-14T07:41:47.011Z,355.26
2017-02-14T07:42:47.008Z,361.24
2017-02-14T07:43:47.008Z,365.68
2017-02-14T07:44:47.008Z,371.71
2017-02-14T07:45:47.015Z,376.37
2017-02-14T07:46:47.021Z,379.65
2017-02-14T07:47:47.009Z,383.87
2017-02-14T07:48:47.016Z,385.85
2017-02-14T07:49:47.017Z,387.96
2017-02-14T07:50:47.020Z,389.71
2017-02-14T07:51:47.017Z,392.35
2017-02-14T07:52:47.018Z,395
2017-02-14T07:53:47.012Z,398.51
2017-02-14T07:54:47.042Z,401.33
2017-02-14T07:55:47.015Z,404.4
2017-02-14T07:56:47.015Z,408.23
2017-02-14T07:57:47.020Z,411.25
2017-02-14T07:58:47.024Z,415.44
2017-02-14T07:59:47.023Z,418.46
2017-02-14T08:00:47.033Z,421.49
2017-02-14T08:01:47.035Z,425.57
2017-02-14T08:02:47.024Z,428.82
2017-02-14T08:03:47.024Z,431.83
2017-02-14T08:04:47.025Z,434.59
2017-02-14T08:05:47.065Z,437.79
2017-02-14T08:06:47.028Z,440.98
2017-02-14T08:07:47.032Z,443.54
2017-02-14T08:08:47.038Z,446.51
2017-02-14T08:09:47.030Z,450.22
2017-02-14T08:10:47.034Z,452.66
2017-02-14T08:11:47.033Z,456.71
2017-02-14T08:12:47.023Z,458.59
2017-02-14T08:13:47.036Z,461.94
2017-02-14T08:14:47.040Z,465.74
2017-02-14T08:15:47.030Z,468.06
2017-02-14T08:16:47.053Z,471.86
2017-02-14T08:17:47.044Z,474.37
2017-02-14T08:18:47.033Z,478.33
2017-02-14T08:19:47.046Z,480.62
2017-02-14T08:20:47.029Z,483.29
2017-02-14T08:21:47.043Z,485.74
2017-02-14T08:22:47.043Z,488.44
2017-02-14T08:23:47.040Z,492.36
2017-02-14T08:24:47.042Z,495.69
2017-02-14T08:25:47.050Z,497.68
2017-02-14T08:26:47.044Z,500.34
2017-02-14T08:27:47.060Z,503.43
2017-02-14T08:28:47.044Z,506.19
2017-02-14T08:29:47.061Z,509.72
2017-02-14T08:30:47.040Z,511.32
2017-02-14T08:31:47.032Z,514.73
2017-02-14T08:32:47.057Z,517.37
2017-02-14T08:33:47.048Z,519.75
2017-02-14T08:34:47.051Z,521.48
2017-02-14T08:35:47.042Z,526.28
2017-02-14T08:36:47.054Z,529.5
2017-02-14T08:37:47.045Z,533.51
2017-02-14T08:38:47.052Z,536.01
2017-02-14T08:39:47.048Z,539.95
2017-02-14T08:40:47.057Z,544.51
2017-02-14T08:41:47.052Z,547.48
2017-02-14T08:42:47.073Z,550.81
2017-02-14T08:43:47.055Z,554.37
2017-02-14T08:44:47.055Z,558.11
2017-02-14T08:45:47.047Z,560.66
2017-02-14T08:46:47.053Z,563.82
2017-02-14T08:47:47.052Z,566.7
2017-02-14T08:48:47.084Z,566.7
2017-02-14T08:49:47.056Z,572
2017-02-14T08:50:47.062Z,574.15
2017-02-14T08:51:47.060Z,577.47
2017-02-14T08:52:47.055Z,579.8
2017-02-14T08:53:47.060Z,581.69
2017-02-14T08:54:47.061Z,584.31
2017-02-14T08:55:47.062Z,587.11
2017-02-14T08:56:47.064Z,589.74
2017-02-14T08:57:47.063Z,591.63
2017-02-14T08:58:47.069Z,594.46
2017-02-14T08:59:47.067Z,597.14
2017-02-14T09:00:47.065Z,599.85
2017-02-14T09:01:47.067Z,601.94
2017-02-14T09:02:47.067Z,605.67
2017-02-14T09:03:47.072Z,608.2
2017-02-14T09:04:47.063Z,610.58
2017-02-14T09:05:47.068Z,613.46
2017-02-14T09:06:47.070Z,615.14
2017-02-14T09:07:47.073Z,618.53
2017-02-14T09:08:47.070Z,619.82
2017-02-14T09:09:47.072Z,623.56
2017-02-14T09:10:47.073Z,626.14
2017-02-14T09:11:47.065Z,627.41
2017-02-14T09:12:47.069Z,630.28
2017-02-14T09:13:47.083Z,633.53
2017-02-14T09:14:47.075Z,635.89
2017-02-14T09:15:47.075Z,638.48
2017-02-14T09:16:47.075Z,640.15
2017-02-14T09:17:47.110Z,642.61
2017-02-14T09:18:47.076Z,644.94
2017-02-14T09:19:47.077Z,646.93
2017-02-14T09:20:47.077Z,649.65
2017-02-14T09:21:47.080Z,651.88
2017-02-14T09:22:47.074Z,653.7
2017-02-14T09:23:47.080Z,656.08
2017-02-14T09:24:47.076Z,658.1
2017-02-14T09:25:47.084Z,660.99
2017-02-14T09:26:47.085Z,662.92
2017-02-14T09:27:47.082Z,665.23
2017-02-14T09:28:47.077Z,667.81
2017-02-14T09:29:47.082Z,671.1
2017-02-14T09:30:47.086Z,673.39
2017-02-14T09:31:47.082Z,676.69
2017-02-14T09:32:47.082Z,679.32
2017-02-14T09:33:47.086Z,681.11
2017-02-14T09:34:47.097Z,683.59
2017-02-14T09:35:47.081Z,685.18
2017-02-14T09:36:47.093Z,687.12
2017-02-14T09:37:47.086Z,689.95
2017-02-14T09:38:47.094Z,691.72
2017-02-14T09:39:47.087Z,694.06
2017-02-14T09:40:47.097Z,695.44
2017-02-14T09:41:47.089Z,697.68
2017-02-14T09:42:47.274Z,700.05
2017-02-14T09:43:47.132Z,702.33
2017-02-14T09:44:47.091Z,701.72
2017-02-14T09:45:47.104Z,706.35
2017-02-14T09:46:47.092Z,708.11
2017-02-14T09:47:47.109Z,709.78
2017-02-14T09:48:47.098Z,710.49
2017-02-14T09:49:47.117Z,712.26
2017-02-14T09:50:47.095Z,713.27
2017-02-14T09:51:47.099Z,713.98
2017-02-14T09:52:47.103Z,715.82
2017-02-14T09:53:47.097Z,715.65
2017-02-14T09:54:47.105Z,717.88
2017-02-14T09:55:47.176Z,718.18
2017-02-14T09:56:47.106Z,719.27
2017-02-14T09:57:47.097Z,720.81
2017-02-14T09:58:47.112Z,721.99
2017-02-14T09:59:47.120Z,724.76
2017-02-14T10:00:47.102Z,725.42
2017-02-14T10:01:47.188Z,727.79
2017-02-14T10:02:47.921Z,729.34
2017-02-14T10:03:47.109Z,730.83
2017-02-14T10:04:47.104Z,732.7
2017-02-14T10:05:47.111Z,735.13
2017-02-14T10:06:47.108Z,736.43
2017-02-14T10:07:47.115Z,738.77
2017-02-14T10:08:47.116Z,740.08
2017-02-14T10:09:47.122Z,741.42
2017-02-14T10:10:47.107Z,742.43
2017-02-14T10:11:47.120Z,744.23
2017-02-14T10:12:47.117Z,747.02
2017-02-14T10:13:47.127Z,750.71
2017-02-14T10:14:47.123Z,755.44
2017-02-14T10:15:47.130Z,760.49
2017-02-14T10:16:47.114Z,765.16
2017-02-14T10:17:47.129Z,769.69
2017-02-14T10:18:47.120Z,775.1
2017-02-14T10:19:47.122Z,779.29
2017-02-14T10:20:47.125Z,778.86
2017-02-14T10:21:47.131Z,781.51
2017-02-14T10:22:47.118Z,781.35
2017-02-14T10:23:47.118Z,781.29
2017-02-14T10:24:47.138Z,780.59
2017-02-14T10:25:47.121Z,780.46
2017-02-14T10:26:47.126Z,781.57
2017-02-14T10:27:47.123Z,781.73
2017-02-14T10:28:47.123Z,783.36
2017-02-14T10:29:47.129Z,783.45
2017-02-14T10:30:47.129Z,784.27
2017-02-14T10:31:47.132Z,784.78
2017-02-14T10:32:47.129Z,784.91
2017-02-14T10:33:47.129Z,786.21
2017-02-14T10:34:47.864Z,786.83
2017-02-14T10:35:47.167Z,787.67
2017-02-14T10:36:47.133Z,788.85
2017-02-14T10:37:47.127Z,789.89
2017-02-14T10:38:47.142Z,792.01
2017-02-14T10:39:47.126Z,793.14
2017-02-14T10:40:47.142Z,794.4
2017-02-14T10:41:47.137Z,795.23
2017-02-14T10:42:47.133Z,796.15
2017-02-14T10:43:47.139Z,797.12
2017-02-14T10:44:47.140Z,797.78
2017-02-14T10:45:47.139Z,798.64
2017-02-14T10:46:47.142Z,800.05
2017-02-14T10:47:47.141Z,801.73
2017-02-14T10:48:47.141Z,803.46
2017-02-14T10:49:47.139Z,805.19
2017-02-14T10:50:47.141Z,805.94
2017-02-14T10:51:47.145Z,809.74
2017-02-14T10:52:47.152Z,810.16
2017-02-14T10:53:47.272Z,810.95
2017-02-14T10:54:47.142Z,812.59
2017-02-14T10:55:47.141Z,813.9
2017-02-14T10:56:47.145Z,815.6
2017-02-14T10:57:47.159Z,816.36
2017-02-14T10:58:47.155Z,816.3
2017-02-14T10:59:47.147Z,819.68
2017-02-14T11:00:47.238Z,821.04
2017-02-14T11:01:47.166Z,822.5
2017-02-14T11:02:47.151Z,823.98
2017-02-14T11:03:47.158Z,825.5
2017-02-14T11:04:47.154Z,827.25
2017-02-14T11:05:47.272Z,828.31
2017-02-14T11:06:47.293Z,829.75
2017-02-14T11:07:47.250Z,830.78
2017-02-14T11:08:47.150Z,833.01
2017-02-14T11:09:47.160Z,834.77
2017-02-14T11:10:47.177Z,836.53
2017-02-14T11:11:47.172Z,837.97
2017-02-14T11:12:47.172Z,839.13
2017-02-14T11:13:47.173Z,840.66
2017-02-14T11:14:47.190Z,841.93
2017-02-14T11:15:47.162Z,842.61
2017-02-14T11:16:47.165Z,842.44
2017-02-14T11:17:47.171Z,845.69
2017-02-14T11:18:47.173Z,846.25
2017-02-14T11:19:47.164Z,848.12
2017-02-14T11:20:47.171Z,849.32
2017-02-14T11:21:47.172Z,851.85
2017-02-14T11:22:47.258Z,853.12
2017-02-14T11:23:47.164Z,853.82
2017-02-14T11:24:47.170Z,854.4
2017-02-14T11:25:47.171Z,855.59
2017-02-14T11:26:47.170Z,856.85
2017-02-14T11:27:47.186Z,857.4
2017-02-14T11:28:47.179Z,858.13
2017-02-14T11:29:47.174Z,859.66
2017-02-14T11:30:47.170Z,861.63
2017-02-14T11:31:47.180Z,862.76
2017-02-14T11:32:48.766Z,865.13
2017-02-14T11:33:47.184Z,866.62
2017-02-14T11:34:47.176Z,868.36
2017-02-14T11:35:47.177Z,870.08
2017-02-14T11:36:47.171Z,871.73
2017-02-14T11:37:47.181Z,873.09
2017-02-14T11:38:47.177Z,874.64
2017-02-14T11:39:47.187Z,876.16
2017-02-14T11:40:47.184Z,877.29
2017-02-14T11:41:47.175Z,878.78
2017-02-14T11:42:47.179Z,879.6
2017-02-14T11:43:47.181Z,881.14
2017-02-14T11:44:47.241Z,882.87
2017-02-14T11:45:47.195Z,884.52
2017-02-14T11:46:47.187Z,885.83
2017-02-14T11:47:47.185Z,887.47
2017-02-14T11:48:47.192Z,888.88
2017-02-14T11:49:47.192Z,890.79
2017-02-14T11:50:47.193Z,892.56
2017-02-14T11:51:47.190Z,895.14
2017-02-14T11:52:47.192Z,896.36
2017-02-14T11:53:47.298Z,897.71
2017-02-14T11:54:47.197Z,899.49
2017-02-14T11:55:47.193Z,900.96
2017-02-14T11:56:47.231Z,902.6
2017-02-14T11:57:47.395Z,903.18
2017-02-14T11:58:47.196Z,903.95
2017-02-14T11:59:47.197Z,905.13
2017-02-14T12:00:47.208Z,906.31
2017-02-14T12:01:47.193Z,907.2
2017-02-14T12:02:47.210Z,908.5
2017-02-14T12:03:47.210Z,909.74
2017-02-14T12:04:47.197Z,910.38
2017-02-14T12:05:47.195Z,911.74
2017-02-14T12:06:47.188Z,912.41
2017-02-14T12:07:47.200Z,912.58
2017-02-14T12:08:47.200Z,912.76
2017-02-14T12:09:47.204Z,914.24
2017-02-14T12:10:47.193Z,915.11
2017-02-14T12:11:47.196Z,917.08
2017-02-14T12:12:47.207Z,918.54
2017-02-14T12:13:47.196Z,919.43
2017-02-14T12:14:47.203Z,919.51
2017-02-14T12:15:47.206Z,920.88
2017-02-14T12:16:47.208Z,922.85
2017-02-14T12:17:47.204Z,924.22
2017-02-14T12:18:47.222Z,925.66
2017-02-14T12:19:47.210Z,927.74
2017-02-14T12:20:47.202Z,929.36
2017-02-14T12:21:47.224Z,931.01
2017-02-14T12:22:47.222Z,932.15
2017-02-14T12:23:47.216Z,934.39
2017-02-14T12:24:47.214Z,935.54
2017-02-14T12:25:47.210Z,936.01
2017-02-14T12:26:47.212Z,936.48
2017-02-14T12:27:47.219Z,937.7
2017-02-14T12:28:47.223Z,938.73
2017-02-14T12:29:47.216Z,939.85
2017-02-14T12:30:47.221Z,940.66
2017-02-14T12:31:47.216Z,941.3